createdAt,value
2018-05-24T09:49:09.137Z,958.72
2018-05-24T09:50:09.130Z,958.67
2018-05-24T09:51:09.125Z,958.66
2018-05-24T09:52:09.123Z,958.69
2018-05-24T09:53:09.115Z,958.65
2018-05-24T09:54:09.108Z,958.66
2018-05-24T09:55:09.101Z,958.65
2018-05-24T09:56:09.093Z,958.64
2018-05-24T09:57:09.088Z,958.62
2018-05-24T09:58:09.084Z,958.65
2018-05-24T09:59:09.077Z,958.69
2018-05-24T10:00:09.071Z,958.65
2018-05-24T10:01:09.068Z,958.7
2018-05-24T10:02:09.063Z,958.59
2018-05-24T10:03:09.052Z,958.64
2018-05-24T10:04:09.051Z,958.62
2018-05-24T10:05:09.041Z,958.57
2018-05-24T10:06:09.034Z,958.54
2018-05-24T10:07:09.029Z,958.51
2018-05-24T10:08:09.024Z,958.47
2018-05-24T10:09:09.018Z,958.48
2018-05-24T10:10:09.039Z,958.46
2018-05-24T10:11:09.009Z,958.43
2018-05-24T10:12:09.000Z,958.46
2018-05-24T10:13:08.994Z,958.46
2018-05-24T10:14:08.994Z,958.47
2018-05-24T10:15:08.982Z,958.51
2018-05-24T10:16:09.086Z,958.6
2018-05-24T10:17:08.971Z,958.66
2018-05-24T10:18:08.997Z,958.85
2018-05-24T10:19:08.959Z,958.9
2018-05-24T10:20:08.954Z,958.94
2018-05-24T10:21:09.022Z,958.87
2018-05-24T10:22:08.942Z,958.8
2018-05-24T10:23:08.936Z,958.77
2018-05-24T10:24:08.931Z,958.63
2018-05-24T10:25:08.925Z,958.65
2018-05-24T10:26:08.919Z,958.64
2018-05-24T10:27:08.913Z,958.61
2018-05-24T10:28:08.912Z,958.55
2018-05-24T10:29:08.900Z,958.5
2018-05-24T10:30:08.895Z,958.51
2018-05-24T10:31:08.889Z,958.55
2018-05-24T10:32:08.884Z,958.55
2018-05-24T10:33:08.877Z,958.49
2018-05-24T10:34:08.872Z,958.42
2018-05-24T10:35:08.866Z,958.41
2018-05-24T10:36:08.860Z,958.4
2018-05-24T10:37:08.858Z,958.4
2018-05-24T10:38:08.859Z,958.43
2018-05-24T10:39:08.842Z,958.4
2018-05-24T10:40:08.834Z,958.38
2018-05-24T10:41:08.831Z,958.34
2018-05-24T10:42:08.833Z,958.35
2018-05-24T10:43:08.818Z,958.35
2018-05-24T10:44:08.811Z,958.33
2018-05-24T10:45:08.813Z,958.33
2018-05-24T10:46:08.799Z,958.33
2018-05-24T10:47:08.793Z,958.41
2018-05-24T10:48:08.786Z,958.4
2018-05-24T10:49:08.781Z,958.39
2018-05-24T10:50:08.778Z,958.37
2018-05-24T10:51:08.856Z,958.42
2018-05-24T10:52:08.763Z,958.34
2018-05-24T10:53:08.758Z,958.36
2018-05-24T10:54:08.755Z,958.38
2018-05-24T10:55:08.744Z,958.39
2018-05-24T10:56:08.848Z,958.38
2018-05-24T10:57:08.732Z,958.38
2018-05-24T10:58:08.726Z,958.39
2018-05-24T10:59:08.719Z,958.4
2018-05-24T11:00:08.714Z,958.36
2018-05-24T11:01:08.711Z,958.35
2018-05-24T11:02:08.701Z,958.31
2018-05-24T11:03:08.833Z,958.31
2018-05-24T11:04:08.691Z,958.29
2018-05-24T11:05:08.683Z,958.29
2018-05-24T11:07:08.671Z,958.24
2018-05-24T11:08:08.665Z,958.22
2018-05-24T11:09:08.660Z,958.24
2018-05-24T11:10:08.653Z,958.19
2018-05-24T11:11:08.648Z,958.2
2018-05-24T11:12:08.641Z,958.16
2018-05-24T11:13:08.636Z,958.15
2018-05-24T11:14:08.632Z,958.13
2018-05-24T11:15:08.625Z,958.1
2018-05-24T11:16:08.618Z,958.11
2018-05-24T11:17:08.612Z,958.1
2018-05-24T11:18:08.608Z,958.1
2018-05-24T11:19:08.603Z,958.12
2018-05-24T11:20:11.598Z,958.08
2018-05-24T11:21:08.594Z,958.1
2018-05-24T11:22:08.585Z,958.09
2018-05-24T11:23:08.580Z,958.05
2018-05-24T11:24:08.580Z,958.08
2018-05-24T11:25:08.582Z,958.05
2018-05-24T11:26:08.564Z,958.11
2018-05-24T11:27:08.558Z,958.09
2018-05-24T11:28:08.553Z,958.12
2018-05-24T11:29:08.547Z,958.13
2018-05-24T11:30:08.541Z,958.15
2018-05-24T11:31:08.536Z,958.1
2018-05-24T11:32:08.629Z,958.14
2018-05-24T11:33:08.527Z,958.07
2018-05-24T11:34:08.519Z,958.09
2018-05-24T11:35:08.515Z,958.11
2018-05-24T11:36:08.509Z,958.09
2018-05-24T11:37:08.556Z,958.05
2018-05-24T11:38:08.501Z,958.06
2018-05-24T11:39:08.495Z,958.07
2018-05-24T11:40:08.487Z,958.08
2018-05-24T11:41:08.482Z,958.05
2018-05-24T11:42:08.477Z,958.05
2018-05-24T11:43:08.568Z,958.08
2018-05-24T11:44:08.466Z,958.09
2018-05-24T11:45:08.459Z,958.02
2018-05-24T11:46:08.454Z,957.93
2018-05-24T11:47:08.448Z,957.91
2018-05-24T11:48:08.444Z,957.84
2018-05-24T11:49:08.438Z,957.8
2018-05-24T11:50:08.432Z,957.79
2018-05-24T11:51:08.427Z,957.8
2018-05-24T11:52:08.422Z,957.78
2018-05-24T11:53:08.414Z,957.8
2018-05-24T11:54:08.412Z,957.82
2018-05-24T11:55:08.405Z,957.83
2018-05-24T11:56:08.399Z,957.78
2018-05-24T11:57:08.393Z,957.8
2018-05-24T11:58:08.389Z,957.79
2018-05-24T11:59:08.385Z,957.83
2018-05-24T12:00:08.377Z,957.83
2018-05-24T12:01:08.372Z,957.79
2018-05-24T12:02:08.366Z,957.78
2018-05-24T12:03:08.362Z,957.75
2018-05-24T12:04:08.354Z,957.74
2018-05-24T12:05:08.352Z,957.74
2018-05-24T12:06:08.345Z,957.72
2018-05-24T12:07:08.451Z,957.69
2018-05-24T12:08:08.337Z,957.7
2018-05-24T12:09:08.330Z,957.7
2018-05-24T12:10:08.324Z,957.68
2018-05-24T12:11:08.317Z,957.65
2018-05-24T12:12:08.311Z,957.64
2018-05-24T12:13:08.310Z,957.6
2018-05-24T12:14:08.301Z,957.63
2018-05-24T12:15:08.301Z,957.59
2018-05-24T12:16:08.291Z,957.58
2018-05-24T12:17:08.287Z,957.53
2018-05-24T12:18:08.280Z,957.54
2018-05-24T12:19:08.274Z,957.51
2018-05-24T12:20:08.269Z,957.57
2018-05-24T12:21:08.264Z,957.52
2018-05-24T12:22:08.257Z,957.53
2018-05-24T12:23:08.253Z,957.56
2018-05-24T12:24:08.250Z,957.5
2018-05-24T12:25:08.243Z,957.51
2018-05-24T12:26:08.238Z,957.51
2018-05-24T12:27:08.233Z,957.54
2018-05-24T12:28:08.228Z,957.54
2018-05-24T12:29:08.316Z,957.56
2018-05-24T12:30:08.219Z,957.56
2018-05-24T12:31:08.212Z,957.61
2018-05-24T12:32:08.206Z,957.67
2018-05-24T12:33:08.200Z,957.72
2018-05-24T12:34:08.195Z,957.77
2018-05-24T12:35:08.190Z,957.8
2018-05-24T12:36:08.186Z,957.77
2018-05-24T12:37:08.179Z,957.8
2018-05-24T12:38:08.175Z,957.85
2018-05-24T12:39:08.169Z,957.83
2018-05-24T12:40:08.165Z,957.83
2018-05-24T12:41:08.160Z,957.89
2018-05-24T12:42:08.153Z,957.86
2018-05-24T12:43:08.149Z,957.84
2018-05-24T12:44:08.144Z,957.85
2018-05-24T12:45:08.138Z,957.84
2018-05-24T12:46:08.134Z,957.83
2018-05-24T12:47:08.129Z,957.76
2018-05-24T12:48:08.122Z,957.79
2018-05-24T12:49:08.158Z,957.81
2018-05-24T12:50:08.114Z,957.75
2018-05-24T12:51:08.106Z,957.74
2018-05-24T12:52:08.101Z,957.68
2018-05-24T12:53:08.097Z,957.71
2018-05-24T12:54:08.094Z,957.7
2018-05-24T12:55:08.090Z,957.76
2018-05-24T12:56:08.081Z,957.74
2018-05-24T12:57:08.077Z,957.74
2018-05-24T12:58:08.072Z,957.72
2018-05-24T12:59:08.067Z,957.72
2018-05-24T13:00:08.062Z,957.79
2018-05-24T13:01:08.056Z,957.8
2018-05-24T13:02:08.050Z,957.78
2018-05-24T13:03:08.048Z,957.79
2018-05-24T13:04:08.090Z,957.79
2018-05-24T13:05:08.041Z,957.78
2018-05-24T13:06:08.038Z,957.76
2018-05-24T13:07:08.026Z,957.72
2018-05-24T13:08:08.022Z,957.72
2018-05-24T13:09:08.015Z,957.73
2018-05-24T13:10:08.014Z,957.76
2018-05-24T13:11:08.033Z,957.78
2018-05-24T13:12:08.000Z,957.79
2018-05-24T13:13:07.996Z,957.82
2018-05-24T13:14:07.990Z,957.82
2018-05-24T13:15:07.987Z,957.85
2018-05-24T13:16:07.981Z,957.82
2018-05-24T13:17:08.028Z,957.84
2018-05-24T13:18:07.974Z,957.83
2018-05-24T13:19:07.966Z,957.81
2018-05-24T13:20:07.959Z,957.78
2018-05-24T13:21:07.955Z,957.76
2018-05-24T13:22:07.949Z,957.73
2018-05-24T13:23:07.947Z,957.77
2018-05-24T13:24:07.940Z,957.77
2018-05-24T13:25:07.936Z,957.79
2018-05-24T13:26:07.931Z,957.78
2018-05-24T13:27:07.926Z,957.76
2018-05-24T13:28:07.918Z,957.72
2018-05-24T13:29:07.913Z,957.7
2018-05-24T13:30:07.925Z,957.7
2018-05-24T13:31:07.904Z,957.72
2018-05-24T13:32:07.899Z,957.71
2018-05-24T13:33:07.894Z,957.68
2018-05-24T13:34:07.889Z,957.69
2018-05-24T13:35:07.884Z,957.64
2018-05-24T13:36:07.878Z,957.58
2018-05-24T13:37:07.874Z,957.61
2018-05-24T13:38:07.869Z,957.54
2018-05-24T13:39:07.863Z,957.55
2018-05-24T13:40:07.858Z,957.52
2018-05-24T13:41:07.852Z,957.49
2018-05-24T13:42:07.848Z,957.54
2018-05-24T13:43:07.841Z,957.48
2018-05-24T13:44:07.836Z,957.46
2018-05-24T13:45:07.835Z,957.53
2018-05-24T13:46:07.825Z,957.53
2018-05-24T13:47:07.819Z,957.55
2018-05-24T13:48:07.815Z,957.59
2018-05-24T13:49:07.812Z,957.62
2018-05-24T13:50:07.803Z,957.65
2018-05-24T13:51:07.797Z,957.65
2018-05-24T13:52:07.792Z,957.63
2018-05-24T13:53:07.787Z,957.58
2018-05-24T13:54:07.784Z,957.6
2018-05-24T13:55:07.776Z,957.54
2018-05-24T13:56:07.772Z,957.5
2018-05-24T13:57:07.764Z,957.5
2018-05-24T13:58:07.759Z,957.47
2018-05-24T13:59:07.753Z,957.42
2018-05-24T14:00:07.748Z,957.41
2018-05-24T14:01:07.742Z,957.4
2018-05-24T14:02:07.736Z,957.42
2018-05-24T14:03:07.730Z,957.4
2018-05-24T14:04:07.723Z,957.4
2018-05-24T14:05:07.720Z,957.44
2018-05-24T14:06:07.715Z,957.4
2018-05-24T14:07:07.709Z,957.41
2018-05-24T14:08:07.702Z,957.42
2018-05-24T14:09:07.697Z,957.41
2018-05-24T14:10:07.692Z,957.37
2018-05-24T14:11:07.686Z,957.4
2018-05-24T14:12:07.681Z,957.41
2018-05-24T14:13:07.674Z,957.42
2018-05-24T14:14:07.680Z,957.42
2018-05-24T14:15:07.662Z,957.45
2018-05-24T14:16:07.657Z,957.44
2018-05-24T14:17:07.653Z,957.45
2018-05-24T14:18:07.648Z,957.47
2018-05-24T14:19:07.640Z,957.44
2018-05-24T14:20:07.636Z,957.42
2018-05-24T14:21:07.634Z,957.42
2018-05-24T14:22:07.625Z,957.44
2018-05-24T14:23:07.619Z,957.4
2018-05-24T14:24:07.616Z,957.39
2018-05-24T14:25:07.609Z,957.38
2018-05-24T14:26:07.626Z,957.38
2018-05-24T14:27:07.597Z,957.36
2018-05-24T14:28:07.591Z,957.4
2018-05-24T14:29:07.591Z,957.39
2018-05-24T14:30:07.580Z,957.45
2018-05-24T14:31:07.580Z,957.44
2018-05-24T14:32:07.570Z,957.41
2018-05-24T14:33:07.566Z,957.44
2018-05-24T14:34:07.559Z,957.43
2018-05-24T14:35:07.554Z,957.47
2018-05-24T14:36:07.549Z,957.46
2018-05-24T14:37:07.544Z,957.48
2018-05-24T14:38:07.537Z,957.47
2018-05-24T14:39:07.534Z,957.48
2018-05-24T14:40:07.526Z,957.49
2018-05-24T14:41:07.521Z,957.55
2018-05-24T14:42:07.517Z,957.57
2018-05-24T14:43:07.511Z,957.58
2018-05-24T14:44:07.507Z,957.59
2018-05-24T14:45:07.501Z,957.61
2018-05-24T14:46:07.495Z,957.64
2018-05-24T14:47:07.490Z,957.6
2018-05-24T14:48:07.484Z,957.62
2018-05-24T14:49:07.482Z,957.58
2018-05-24T14:50:07.474Z,957.59
2018-05-24T14:51:07.469Z,957.58
2018-05-24T14:52:07.462Z,957.61
2018-05-24T14:53:07.456Z,957.6
2018-05-24T14:54:07.452Z,957.61
2018-05-24T14:55:07.447Z,957.58
2018-05-24T14:56:07.443Z,957.63
2018-05-24T14:57:07.436Z,957.65
2018-05-24T14:58:07.431Z,957.63
2018-05-24T14:59:07.431Z,957.66
2018-05-24T15:00:07.423Z,957.66
2018-05-24T15:01:07.416Z,957.64
2018-05-24T15:02:07.411Z,957.67
2018-05-24T15:03:07.404Z,957.69
2018-05-24T15:04:07.399Z,957.68
2018-05-24T15:05:07.394Z,957.69
2018-05-24T15:06:07.388Z,957.7
2018-05-24T15:07:07.382Z,957.7
2018-05-24T15:08:07.384Z,957.71
2018-05-24T15:09:07.371Z,957.73
2018-05-24T15:10:07.367Z,957.74
2018-05-24T15:11:07.361Z,957.77
2018-05-24T15:12:07.356Z,957.86
2018-05-24T15:13:07.352Z,957.94
2018-05-24T15:14:07.346Z,957.95
2018-05-24T15:15:07.339Z,957.93
2018-05-24T15:16:07.336Z,957.94
2018-05-24T15:17:07.329Z,957.94
2018-05-24T15:18:07.325Z,957.93
2018-05-24T15:19:07.318Z,957.94
2018-05-24T15:20:07.312Z,957.95
2018-05-24T15:21:07.306Z,957.91
2018-05-24T15:22:07.302Z,957.92
2018-05-24T15:23:07.295Z,957.88
2018-05-24T15:24:07.291Z,957.86
2018-05-24T15:25:07.285Z,957.83
2018-05-24T15:26:07.280Z,957.76
2018-05-24T15:27:07.276Z,957.73
2018-05-24T15:28:07.267Z,957.71
2018-05-24T15:29:07.264Z,957.66
2018-05-24T15:30:07.258Z,957.61
2018-05-24T15:31:07.252Z,957.68
2018-05-24T15:32:07.246Z,957.66
2018-05-24T15:33:07.241Z,957.67
2018-05-24T15:34:07.235Z,957.62
2018-05-24T15:35:07.229Z,957.55
2018-05-24T15:36:07.226Z,957.51
2018-05-24T15:37:07.219Z,957.5
2018-05-24T15:38:07.212Z,957.51
2018-05-24T15:39:07.206Z,957.48
2018-05-24T15:40:07.202Z,957.48
2018-05-24T15:41:07.196Z,957.47
2018-05-24T15:42:07.192Z,957.46
2018-05-24T15:43:07.184Z,957.44
2018-05-24T15:44:07.180Z,957.43
2018-05-24T15:45:07.180Z,957.42
2018-05-24T15:46:07.167Z,957.42
2018-05-24T15:47:07.163Z,957.44
2018-05-24T15:48:07.158Z,957.36
2018-05-24T15:49:07.152Z,957.36
2018-05-24T15:50:07.146Z,957.35
2018-05-24T15:51:07.142Z,957.3
2018-05-24T15:52:07.136Z,957.3
2018-05-24T15:53:07.131Z,957.27
2018-05-24T15:54:07.123Z,957.28
2018-05-24T15:55:07.119Z,957.29
2018-05-24T15:56:07.112Z,957.29
2018-05-24T15:57:07.112Z,957.27
2018-05-24T15:58:07.103Z,957.27
2018-05-24T15:59:07.097Z,957.29
2018-05-24T16:00:07.091Z,957.29
2018-05-24T16:01:07.086Z,957.33
2018-05-24T16:02:07.080Z,957.35
2018-05-24T16:03:07.074Z,957.36
2018-05-24T16:04:07.073Z,957.38
2018-05-24T16:05:07.064Z,957.41
2018-05-24T16:06:07.058Z,957.41
2018-05-24T16:07:07.055Z,957.42
2018-05-24T16:08:07.051Z,957.45
2018-05-24T16:09:07.044Z,957.47
2018-05-24T16:10:07.038Z,957.5
2018-05-24T16:11:07.033Z,957.53
2018-05-24T16:12:07.027Z,957.58
2018-05-24T16:13:07.022Z,957.59
2018-05-24T16:14:07.018Z,957.59
2018-05-24T16:15:07.011Z,957.63
2018-05-24T16:16:07.006Z,957.6
2018-05-24T16:17:07.001Z,957.63
2018-05-24T16:18:06.994Z,957.74
2018-05-24T16:19:06.988Z,957.85
2018-05-24T16:20:06.983Z,957.78
2018-05-24T16:21:06.980Z,957.89
2018-05-24T16:22:06.974Z,957.79
2018-05-24T16:23:06.968Z,957.75
2018-05-24T16:24:06.963Z,957.77
2018-05-24T16:25:06.960Z,957.81
2018-05-24T16:26:06.954Z,957.76
2018-05-24T16:27:06.948Z,957.73
2018-05-24T16:28:06.944Z,957.7
2018-05-24T16:29:06.938Z,957.68
2018-05-24T16:30:06.933Z,957.62
2018-05-24T16:31:06.927Z,957.61
2018-05-24T16:32:06.924Z,957.55
2018-05-24T16:33:06.918Z,957.57
2018-05-24T16:34:06.911Z,957.61
2018-05-24T16:35:06.911Z,957.6
2018-05-24T16:36:06.901Z,957.59
2018-05-24T16:37:06.896Z,957.56
2018-05-24T16:38:06.890Z,957.51
2018-05-24T16:39:06.884Z,957.56
2018-05-24T16:40:06.880Z,957.61
2018-05-24T16:41:06.874Z,957.62
2018-05-24T16:42:06.868Z,957.63
2018-05-24T16:43:06.904Z,957.65
2018-05-24T16:44:06.858Z,957.64
2018-05-24T16:45:06.851Z,957.68
2018-05-24T16:46:06.846Z,957.66
2018-05-24T16:47:06.841Z,957.7
2018-05-24T16:48:06.836Z,957.65
2018-05-24T16:49:06.844Z,957.62
2018-05-24T16:50:06.823Z,957.56
2018-05-24T16:51:06.820Z,957.57
2018-05-24T16:52:06.812Z,957.57
2018-05-24T16:53:06.805Z,957.55
2018-05-24T16:54:06.810Z,957.53
2018-05-24T16:55:06.794Z,957.58
2018-05-24T16:56:06.791Z,957.54
2018-05-24T16:57:06.783Z,957.55
2018-05-24T16:58:06.777Z,957.46
2018-05-24T16:59:06.773Z,957.47
2018-05-24T17:00:06.770Z,957.42
2018-05-24T17:01:06.760Z,957.4
2018-05-24T17:02:06.753Z,957.39
2018-05-24T17:03:06.747Z,957.36
2018-05-24T17:04:06.742Z,957.37
2018-05-24T17:05:06.747Z,957.26
2018-05-24T17:06:06.730Z,957.25
2018-05-24T17:07:06.723Z,957.26
2018-05-24T17:08:06.717Z,957.27
2018-05-24T17:09:06.712Z,957.22
2018-05-24T17:10:06.708Z,957.2
2018-05-24T17:11:06.699Z,957.2
2018-05-24T17:12:06.693Z,957.18
2018-05-24T17:13:06.689Z,957.17
2018-05-24T17:14:06.680Z,957.13
2018-05-24T17:15:06.679Z,957.13
2018-05-24T17:16:06.670Z,957.11
2018-05-24T17:17:06.668Z,957.07
2018-05-24T17:18:06.657Z,957.02
2018-05-24T17:19:06.651Z,957.05
2018-05-24T17:20:06.645Z,957.04
2018-05-24T17:21:06.640Z,957.03
2018-05-24T17:22:06.632Z,956.98
2018-05-24T17:23:06.628Z,957.01
2018-05-24T17:24:06.620Z,956.98
2018-05-24T17:25:06.613Z,956.99
2018-05-24T17:26:06.608Z,956.96
2018-05-24T17:27:06.602Z,956.96
2018-05-24T17:28:06.596Z,956.92
2018-05-24T17:29:06.590Z,956.97
2018-05-24T17:30:06.585Z,956.94
2018-05-24T17:31:06.581Z,956.93
2018-05-24T17:32:06.577Z,956.95
2018-05-24T17:33:06.564Z,957.04
2018-05-24T17:34:06.560Z,957
2018-05-24T17:35:06.553Z,957.03
2018-05-24T17:36:06.547Z,957.04
2018-05-24T17:37:06.540Z,957.08
2018-05-24T17:38:06.534Z,957.07
2018-05-24T17:39:06.528Z,957.1
2018-05-24T17:40:06.522Z,957.14
2018-05-24T17:41:06.517Z,957.19
2018-05-24T17:42:06.510Z,957.15
2018-05-24T17:43:06.506Z,957.22
2018-05-24T17:44:06.500Z,957.27
2018-05-24T17:45:06.493Z,957.28
2018-05-24T17:46:06.487Z,957.28
2018-05-24T17:47:06.479Z,957.32
2018-05-24T17:48:06.478Z,957.34
2018-05-24T17:49:06.468Z,957.33
2018-05-24T17:50:06.463Z,957.3
2018-05-24T17:51:06.456Z,957.31
2018-05-24T17:52:06.450Z,957.37
2018-05-24T17:53:06.443Z,957.34
2018-05-24T17:54:06.436Z,957.33
2018-05-24T17:55:06.431Z,957.32
2018-05-24T17:56:06.433Z,957.35
2018-05-24T17:57:06.418Z,957.33
2018-05-24T17:58:06.412Z,957.29
2018-05-24T17:59:06.405Z,957.25
2018-05-24T18:00:06.399Z,957.26
2018-05-24T18:01:06.396Z,957.34
2018-05-24T18:02:06.387Z,957.33
2018-05-24T18:03:06.384Z,957.31
2018-05-24T18:04:06.376Z,957.31
2018-05-24T18:05:06.370Z,957.31
2018-05-24T18:06:06.363Z,957.34
2018-05-24T18:07:06.359Z,957.37
2018-05-24T18:08:06.351Z,957.34
2018-05-24T18:09:06.343Z,957.4
2018-05-24T18:10:06.338Z,957.35
2018-05-24T18:11:06.334Z,957.32
2018-05-24T18:12:06.327Z,957.4
2018-05-24T18:13:06.319Z,957.39
2018-05-24T18:14:06.314Z,957.34
2018-05-24T18:15:06.391Z,957.36
2018-05-24T18:16:06.322Z,957.35
2018-05-24T18:17:06.295Z,957.36
2018-05-24T18:18:06.289Z,957.33
2018-05-24T18:19:06.287Z,957.29
2018-05-24T18:20:06.277Z,957.31
2018-05-24T18:21:06.289Z,957.29
2018-05-24T18:22:06.265Z,957.29
2018-05-24T18:23:06.257Z,957.3
2018-05-24T18:24:06.252Z,957.28
2018-05-24T18:25:06.245Z,957.27
2018-05-24T18:26:06.241Z,957.3
2018-05-24T18:27:06.233Z,957.29
2018-05-24T18:28:06.227Z,957.32
2018-05-24T18:29:06.228Z,957.27
2018-05-24T18:30:06.226Z,957.28
2018-05-24T18:31:06.209Z,957.27
2018-05-24T18:32:06.210Z,957.26
2018-05-24T18:33:06.199Z,957.29
2018-05-24T18:34:06.191Z,957.25
2018-05-24T18:35:06.185Z,957.26
2018-05-24T18:36:06.190Z,957.25
2018-05-24T18:37:06.172Z,957.25
2018-05-24T18:38:06.273Z,957.26
2018-05-24T18:39:06.207Z,957.26
2018-05-24T18:40:06.209Z,957.26
2018-05-24T18:41:06.205Z,957.26
2018-05-24T18:42:06.201Z,957.18
2018-05-24T18:43:06.388Z,957.15
2018-05-24T18:44:06.171Z,957.2
2018-05-24T18:45:06.164Z,957.17
2018-05-24T18:46:06.166Z,957.16
2018-05-24T18:47:06.158Z,957.11
2018-05-24T18:48:06.208Z,957.16
2018-05-24T18:49:06.146Z,957.12
2018-05-24T18:50:06.146Z,957.16
2018-05-24T18:51:06.133Z,957.23
2018-05-24T18:52:06.144Z,957.19
2018-05-24T18:53:06.172Z,957.22
2018-05-24T18:54:06.067Z,957.17
2018-05-24T18:55:06.106Z,957.13
2018-05-24T18:56:06.121Z,957.1
2018-05-24T18:57:06.114Z,957.11
2018-05-24T18:58:06.106Z,957.1
2018-05-24T18:59:06.074Z,957.08
2018-05-24T19:00:06.083Z,957.1
2018-05-24T19:01:06.085Z,957.08
2018-05-24T19:02:06.066Z,957.09
2018-05-24T19:03:06.055Z,957.09
2018-05-24T19:04:06.044Z,957.16
2018-05-24T19:05:06.041Z,957.11
2018-05-24T19:06:06.041Z,957.14
2018-05-24T19:07:06.020Z,957.13
2018-05-24T19:08:06.111Z,957.12
2018-05-24T19:09:06.013Z,957.14
2018-05-24T19:10:06.010Z,957.16
2018-05-24T19:11:05.992Z,957.19
2018-05-24T19:12:05.955Z,957.16
2018-05-24T19:13:06.009Z,957.17
2018-05-24T19:14:05.973Z,957.16
2018-05-24T19:15:05.961Z,957.17
2018-05-24T19:16:05.997Z,957.13
2018-05-24T19:17:05.935Z,957.13
2018-05-24T19:18:05.948Z,957.22
2018-05-24T19:19:05.960Z,957.21
2018-05-24T19:20:05.943Z,957.18
2018-05-24T19:21:05.960Z,957.19
2018-05-24T19:22:05.944Z,957.21
2018-05-24T19:23:05.966Z,957.24
2018-05-24T19:24:05.927Z,957.21
2018-05-24T19:25:05.934Z,957.23
2018-05-24T19:26:05.886Z,957.22
2018-05-24T19:27:05.946Z,957.23
2018-05-24T19:28:05.899Z,957.27
2018-05-24T19:29:05.927Z,957.27
2018-05-24T19:30:05.884Z,957.28
2018-05-24T19:31:05.836Z,957.29
2018-05-24T19:32:05.832Z,957.27
2018-05-24T19:33:05.823Z,957.24
2018-05-24T19:34:05.817Z,957.27
2018-05-24T19:35:05.811Z,957.26
2018-05-24T19:36:05.806Z,957.28
2018-05-24T19:37:05.796Z,957.22
2018-05-24T19:38:05.792Z,957.22
2018-05-24T19:39:05.786Z,957.19
2018-05-24T19:40:05.780Z,957.19
2018-05-24T19:41:05.772Z,957.22
2018-05-24T19:42:05.767Z,957.18
2018-05-24T19:43:05.760Z,957.15
2018-05-24T19:44:05.753Z,957.13
2018-05-24T19:45:05.748Z,957.2
2018-05-24T19:46:05.741Z,957.18
2018-05-24T19:47:05.734Z,957.2
2018-05-24T19:48:05.727Z,957.21
2018-05-24T19:49:05.723Z,957.24
2018-05-24T19:50:05.723Z,957.24
2018-05-24T19:51:05.709Z,957.21
2018-05-24T19:52:05.702Z,957.26
2018-05-24T19:53:05.696Z,957.21
2018-05-24T19:54:05.690Z,957.24
2018-05-24T19:55:05.682Z,957.19
2018-05-24T19:56:05.676Z,957.23
2018-05-24T19:57:05.670Z,957.24
2018-05-24T19:58:05.664Z,957.26
2018-05-24T19:59:05.658Z,957.16
2018-05-24T20:00:05.650Z,957.16
2018-05-24T20:01:05.645Z,957.19
2018-05-24T20:02:05.638Z,957.19
2018-05-24T20:03:05.634Z,957.14
2018-05-24T20:04:05.628Z,957.14
2018-05-24T20:05:05.619Z,957.15
2018-05-24T20:06:05.612Z,957.14
2018-05-24T20:07:05.611Z,957.11
2018-05-24T20:08:05.603Z,957.08
2018-05-24T20:09:05.594Z,957.19
2018-05-24T20:10:05.645Z,957.16
2018-05-24T20:11:05.591Z,957.19
2018-05-24T20:12:05.635Z,957.19
2018-05-24T20:13:05.610Z,957.17
2018-05-24T20:14:05.610Z,957.18
2018-05-24T20:15:05.616Z,957.17
2018-05-24T20:16:05.588Z,957.16
2018-05-24T20:17:05.603Z,957.2
2018-05-24T20:18:05.533Z,957.2
2018-05-24T20:19:05.631Z,957.24
2018-05-24T20:20:05.598Z,957.23
2018-05-24T20:21:05.561Z,957.24
2018-05-24T20:22:05.547Z,957.24
2018-05-24T20:23:05.597Z,957.21
2018-05-24T20:24:05.601Z,957.25
2018-05-24T20:25:05.535Z,957.26
2018-05-24T20:26:05.524Z,957.24
2018-05-24T20:27:05.534Z,957.26
2018-05-24T20:28:05.514Z,957.24
2018-05-24T20:29:05.580Z,957.24
2018-05-24T20:30:05.483Z,957.24
2018-05-24T20:31:05.510Z,957.24
2018-05-24T20:32:05.492Z,957.24
2018-05-24T20:33:05.502Z,957.28
2018-05-24T20:34:05.534Z,957.25
2018-05-24T20:35:05.463Z,957.26
2018-05-24T20:36:05.477Z,957.34
2018-05-24T20:37:05.469Z,957.33
2018-05-24T20:38:05.449Z,957.31
2018-05-24T20:39:05.518Z,957.34
2018-05-24T20:40:05.451Z,957.32
2018-05-24T20:41:05.455Z,957.33
2018-05-24T20:42:05.427Z,957.31
2018-05-24T20:43:05.403Z,957.33
2018-05-24T20:44:05.475Z,957.33
2018-05-24T20:45:05.419Z,957.28
2018-05-24T20:46:05.385Z,957.27
2018-05-24T20:47:05.371Z,957.3
2018-05-24T20:48:05.408Z,957.29
2018-05-24T20:49:05.451Z,957.34
2018-05-24T20:50:05.371Z,957.32
2018-05-24T20:51:05.338Z,957.34
2018-05-24T20:52:05.311Z,957.35
2018-05-24T20:53:05.366Z,957.41
2018-05-24T20:54:05.378Z,957.4
2018-05-24T20:55:05.340Z,957.38
2018-05-24T20:56:05.344Z,957.45
2018-05-24T20:57:05.330Z,957.5
2018-05-24T20:58:05.320Z,957.46
2018-05-24T20:59:05.562Z,957.5
2018-05-24T21:00:05.307Z,957.55
2018-05-24T21:01:05.293Z,957.62
2018-05-24T21:02:05.244Z,957.59
2018-05-24T21:03:05.242Z,957.63
2018-05-24T21:04:05.232Z,957.65
2018-05-24T21:05:05.226Z,957.64
2018-05-24T21:06:05.218Z,957.67
2018-05-24T21:07:05.281Z,957.66
2018-05-24T21:08:05.205Z,957.68
2018-05-24T21:09:05.198Z,957.66
2018-05-24T21:10:05.192Z,957.64
2018-05-24T21:11:05.186Z,957.67
2018-05-24T21:12:05.178Z,957.63
2018-05-24T21:13:05.172Z,957.64
2018-05-24T21:14:05.165Z,957.68
2018-05-24T21:15:05.159Z,957.65
2018-05-24T21:16:05.151Z,957.67
2018-05-24T21:17:05.145Z,957.61
2018-05-24T21:18:05.212Z,957.62
2018-05-24T21:19:05.132Z,957.65
2018-05-24T21:20:05.128Z,957.66
2018-05-24T21:21:05.120Z,957.62
2018-05-24T21:22:05.112Z,957.62
2018-05-24T21:23:05.106Z,957.6
2018-05-24T21:24:05.099Z,957.61
2018-05-24T21:25:05.093Z,957.62
2018-05-24T21:26:05.085Z,957.59
2018-05-24T21:27:05.078Z,957.59
2018-05-24T21:28:05.073Z,957.56
2018-05-24T21:29:05.065Z,957.57
2018-05-24T21:30:05.057Z,957.59
2018-05-24T21:31:05.052Z,957.58
2018-05-24T21:32:05.095Z,957.59
2018-05-24T21:33:05.041Z,957.6
2018-05-24T21:34:05.031Z,957.58
2018-05-24T21:35:05.026Z,957.61
2018-05-24T21:36:05.019Z,957.61
2018-05-24T21:37:05.010Z,957.6
2018-05-24T21:38:05.004Z,957.62
2018-05-24T21:39:04.997Z,957.59
2018-05-24T21:40:04.993Z,957.57
2018-05-24T21:41:04.983Z,957.6
2018-05-24T21:42:04.976Z,957.61
2018-05-24T21:43:05.005Z,957.64
2018-05-24T21:44:04.962Z,957.66
2018-05-24T21:45:04.956Z,957.63
2018-05-24T21:46:04.949Z,957.61
2018-05-24T21:47:04.945Z,957.59
2018-05-24T21:48:04.937Z,957.58
2018-05-24T21:49:04.928Z,957.58
2018-05-24T21:50:04.922Z,957.54
2018-05-24T21:51:04.915Z,957.51
2018-05-24T21:52:04.910Z,957.57
2018-05-24T21:53:04.902Z,957.56
2018-05-24T21:54:04.894Z,957.59
2018-05-24T21:55:04.888Z,957.62
2018-05-24T21:56:04.880Z,957.64
2018-05-24T21:57:04.874Z,957.62
2018-05-24T21:58:04.867Z,957.66
2018-05-24T21:59:04.858Z,957.67
2018-05-24T22:00:04.852Z,957.73
2018-05-24T22:01:04.847Z,957.73
2018-05-24T22:02:04.852Z,957.71
2018-05-24T22:03:04.832Z,957.71
2018-05-24T22:04:04.826Z,957.71
2018-05-24T22:05:04.818Z,957.75
2018-05-24T22:06:04.813Z,957.79
2018-05-24T22:07:04.806Z,957.79
2018-05-24T22:08:04.800Z,957.75
2018-05-24T22:09:04.791Z,957.75
2018-05-24T22:10:04.807Z,957.74
2018-05-24T22:11:04.778Z,957.73
2018-05-24T22:12:04.771Z,957.69
2018-05-24T22:13:04.766Z,957.76
2018-05-24T22:14:04.757Z,957.77
2018-05-24T22:15:04.755Z,957.8
2018-05-24T22:16:04.757Z,957.8
2018-05-24T22:17:04.774Z,957.82
2018-05-24T22:18:04.729Z,957.8
2018-05-24T22:19:04.724Z,957.86
2018-05-24T22:20:04.717Z,957.89
2018-05-24T22:21:04.708Z,957.94